sensor_id;sensor_type;location;lat;lon;timestamp;P1;durP1;ratioP1;P2;durP2;ratioP2
830;SDS011;397;50.564;7.272;2023-06-14T00:00:44;7.43;;;6.67;;
830;SDS011;397;50.564;7.272;2023-06-14T00:03:11;7.10;;;6.50;;
830;SDS011;397;50.564;7.272;2023-06-14T00:05:41;9.37;;;6.60;;
830;SDS011;397;50.564;7.272;2023-06-14T00:08:09;7.80;;;7.10;;
830;SDS011;397;50.564;7.272;2023-06-14T00:10:36;7.93;;;7.00;;
830;SDS011;397;50.564;7.272;2023-06-14T00:13:06;7.17;;;6.47;;
830;SDS011;397;50.564;7.272;2023-06-14T00:15:37;9.70;;;6.57;;
830;SDS011;397;50.564;7.272;2023-06-14T00:18:05;7.67;;;6.97;;
830;SDS011;397;50.564;7.272;2023-06-14T00:20:33;7.63;;;6.93;;
830;SDS011;397;50.564;7.272;2023-06-14T00:23:00;10.43;;;6.23;;
830;SDS011;397;50.564;7.272;2023-06-14T00:25:28;7.37;;;6.60;;
830;SDS011;397;50.564;7.272;2023-06-14T00:27:56;8.00;;;6.30;;
830;SDS011;397;50.564;7.272;2023-06-14T00:30:24;9.33;;;6.73;;
830;SDS011;397;50.564;7.272;2023-06-14T00:32:53;7.10;;;6.43;;
830;SDS011;397;50.564;7.272;2023-06-14T00:35:21;6.73;;;5.97;;
830;SDS011;397;50.564;7.272;2023-06-14T00:37:49;7.57;;;6.80;;
830;SDS011;397;50.564;7.272;2023-06-14T00:40:16;7.17;;;6.50;;
830;SDS011;397;50.564;7.272;2023-06-14T00:42:44;8.13;;;7.10;;
830;SDS011;397;50.564;7.272;2023-06-14T00:45:11;10.23;;;6.80;;
830;SDS011;397;50.564;7.272;2023-06-14T00:47:39;7.33;;;6.63;;
830;SDS011;397;50.564;7.272;2023-06-14T00:50:09;6.83;;;6.00;;
830;SDS011;397;50.564;7.272;2023-06-14T00:52:38;7.47;;;6.70;;
830;SDS011;397;50.564;7.272;2023-06-14T00:55:06;7.43;;;6.73;;
830;SDS011;397;50.564;7.272;2023-06-14T00:57:34;6.60;;;5.90;;
830;SDS011;397;50.564;7.272;2023-06-14T01:00:03;6.83;;;6.23;;
830;SDS011;397;50.564;7.272;2023-06-14T01:02:33;6.90;;;6.20;;
830;SDS011;397;50.564;7.272;2023-06-14T01:05:00;7.07;;;6.47;;
830;SDS011;397;50.564;7.272;2023-06-14T01:07:37;8.03;;;7.10;;
830;SDS011;397;50.564;7.272;2023-06-14T01:13:11;10.23;;;7.37;;
830;SDS011;397;50.564;7.272;2023-06-14T01:15:41;11.47;;;7.83;;
830;SDS011;397;50.564;7.272;2023-06-14T01:18:10;7.07;;;6.43;;
830;SDS011;397;50.564;7.272;2023-06-14T01:20:39;7.80;;;7.00;;
830;SDS011;397;50.564;7.272;2023-06-14T01:23:07;8.60;;;7.73;;
830;SDS011;397;50.564;7.272;2023-06-14T01:25:34;7.87;;;7.23;;
830;SDS011;397;50.564;7.272;2023-06-14T01:28:04;7.60;;;6.80;;
830;SDS011;397;50.564;7.272;2023-06-14T01:30:37;10.90;;;7.37;;
830;SDS011;397;50.564;7.272;2023-06-14T01:33:14;9.10;;;6.40;;
830;SDS011;397;50.564;7.272;2023-06-14T01:35:43;7.50;;;6.70;;
830;SDS011;397;50.564;7.272;2023-06-14T01:38:12;7.03;;;6.43;;
830;SDS011;397;50.564;7.272;2023-06-14T01:40:42;6.60;;;6.00;;
830;SDS011;397;50.564;7.272;2023-06-14T01:43:11;8.77;;;7.77;;
830;SDS011;397;50.564;7.272;2023-06-14T01:45:40;8.97;;;7.43;;
830;SDS011;397;50.564;7.272;2023-06-14T01:48:09;8.37;;;6.57;;
830;SDS011;397;50.564;7.272;2023-06-14T01:50:36;7.03;;;6.30;;
830;SDS011;397;50.564;7.272;2023-06-14T01:53:07;8.97;;;6.90;;
830;SDS011;397;50.564;7.272;2023-06-14T01:55:36;9.00;;;7.83;;
830;SDS011;397;50.564;7.272;2023-06-14T01:58:06;7.67;;;6.97;;
830;SDS011;397;50.564;7.272;2023-06-14T02:00:33;11.20;;;6.63;;
830;SDS011;397;50.564;7.272;2023-06-14T02:03:01;7.43;;;6.73;;
830;SDS011;397;50.564;7.272;2023-06-14T02:05:30;7.20;;;6.50;;
830;SDS011;397;50.564;7.272;2023-06-14T02:08:00;7.37;;;6.77;;
830;SDS011;397;50.564;7.272;2023-06-14T02:10:28;7.23;;;6.60;;
830;SDS011;397;50.564;7.272;2023-06-14T02:12:55;8.53;;;7.47;;
830;SDS011;397;50.564;7.272;2023-06-14T02:15:23;8.40;;;6.87;;
830;SDS011;397;50.564;7.272;2023-06-14T02:17:52;8.93;;;7.97;;
830;SDS011;397;50.564;7.272;2023-06-14T02:20:19;8.13;;;7.33;;
830;SDS011;397;50.564;7.272;2023-06-14T02:22:47;8.13;;;7.33;;
830;SDS011;397;50.564;7.272;2023-06-14T02:25:14;8.17;;;7.37;;
830;SDS011;397;50.564;7.272;2023-06-14T02:27:42;7.70;;;7.00;;
830;SDS011;397;50.564;7.272;2023-06-14T02:30:10;8.70;;;7.57;;
830;SDS011;397;50.564;7.272;2023-06-14T02:32:38;7.97;;;7.17;;
830;SDS011;397;50.564;7.272;2023-06-14T02:35:06;7.90;;;7.20;;
830;SDS011;397;50.564;7.272;2023-06-14T02:37:34;7.83;;;7.13;;
830;SDS011;397;50.564;7.272;2023-06-14T02:40:02;8.10;;;7.30;;
830;SDS011;397;50.564;7.272;2023-06-14T02:42:29;8.30;;;7.50;;
830;SDS011;397;50.564;7.272;2023-06-14T02:44:57;8.13;;;7.33;;
830;SDS011;397;50.564;7.272;2023-06-14T02:47:24;8.33;;;7.53;;
830;SDS011;397;50.564;7.272;2023-06-14T02:49:52;8.23;;;7.43;;
830;SDS011;397;50.564;7.272;2023-06-14T02:52:19;8.60;;;7.80;;
830;SDS011;397;50.564;7.272;2023-06-14T02:54:47;8.00;;;7.23;;
830;SDS011;397;50.564;7.272;2023-06-14T02:57:15;9.07;;;8.20;;
830;SDS011;397;50.564;7.272;2023-06-14T02:59:42;7.43;;;6.73;;
830;SDS011;397;50.564;7.272;2023-06-14T03:02:10;8.53;;;7.73;;
830;SDS011;397;50.564;7.272;2023-06-14T03:04:37;10.50;;;7.87;;
830;SDS011;397;50.564;7.272;2023-06-14T03:07:05;8.50;;;7.70;;
830;SDS011;397;50.564;7.272;2023-06-14T03:09:35;8.73;;;7.93;;
830;SDS011;397;50.564;7.272;2023-06-14T03:12:03;7.67;;;6.97;;
830;SDS011;397;50.564;7.272;2023-06-14T03:14:33;8.90;;;8.10;;
830;SDS011;397;50.564;7.272;2023-06-14T03:17:01;8.10;;;7.30;;
830;SDS011;397;50.564;7.272;2023-06-14T03:19:30;9.40;;;8.50;;
830;SDS011;397;50.564;7.272;2023-06-14T03:21:58;8.30;;;7.20;;
830;SDS011;397;50.564;7.272;2023-06-14T03:24:25;8.00;;;7.20;;
830;SDS011;397;50.564;7.272;2023-06-14T03:26:57;8.20;;;7.40;;
830;SDS011;397;50.564;7.272;2023-06-14T03:29:25;9.33;;;8.43;;
830;SDS011;397;50.564;7.272;2023-06-14T03:31:56;12.30;;;7.93;;
830;SDS011;397;50.564;7.272;2023-06-14T03:34:26;9.63;;;8.10;;
830;SDS011;397;50.564;7.272;2023-06-14T03:36:53;10.17;;;9.17;;
830;SDS011;397;50.564;7.272;2023-06-14T03:39:21;8.50;;;7.70;;
830;SDS011;397;50.564;7.272;2023-06-14T03:41:49;8.40;;;7.60;;
830;SDS011;397;50.564;7.272;2023-06-14T03:44:17;9.50;;;8.20;;
830;SDS011;397;50.564;7.272;2023-06-14T03:46:45;8.80;;;8.00;;
830;SDS011;397;50.564;7.272;2023-06-14T03:49:13;8.00;;;7.20;;
830;SDS011;397;50.564;7.272;2023-06-14T03:51:42;12.77;;;8.00;;
830;SDS011;397;50.564;7.272;2023-06-14T03:54:10;9.17;;;8.33;;
830;SDS011;397;50.564;7.272;2023-06-14T03:56:38;8.40;;;7.60;;
830;SDS011;397;50.564;7.272;2023-06-14T03:59:05;9.00;;;7.20;;
830;SDS011;397;50.564;7.272;2023-06-14T04:01:33;7.43;;;6.73;;
830;SDS011;397;50.564;7.272;2023-06-14T04:04:00;10.70;;;8.03;;
830;SDS011;397;50.564;7.272;2023-06-14T04:06:28;8.93;;;7.40;;
830;SDS011;397;50.564;7.272;2023-06-14T04:08:57;8.27;;;7.20;;
830;SDS011;397;50.564;7.272;2023-06-14T04:11:27;8.27;;;7.50;;
830;SDS011;397;50.564;7.272;2023-06-14T04:13:55;8.37;;;7.50;;
830;SDS011;397;50.564;7.272;2023-06-14T04:16:22;10.80;;;7.80;;
830;SDS011;397;50.564;7.272;2023-06-14T04:18:50;9.90;;;8.00;;
830;SDS011;397;50.564;7.272;2023-06-14T04:21:18;7.93;;;7.23;;
830;SDS011;397;50.564;7.272;2023-06-14T04:23:46;9.67;;;7.77;;
830;SDS011;397;50.564;7.272;2023-06-14T04:26:14;8.67;;;7.87;;
830;SDS011;397;50.564;7.272;2023-06-14T04:28:43;9.63;;;8.30;;
830;SDS011;397;50.564;7.272;2023-06-14T04:31:10;9.30;;;8.40;;
830;SDS011;397;50.564;7.272;2023-06-14T04:33:38;9.80;;;8.90;;
830;SDS011;397;50.564;7.272;2023-06-14T04:36:07;8.97;;;8.07;;
830;SDS011;397;50.564;7.272;2023-06-14T04:38:37;12.50;;;7.97;;
830;SDS011;397;50.564;7.272;2023-06-14T04:41:05;8.30;;;7.50;;
830;SDS011;397;50.564;7.272;2023-06-14T04:43:34;13.17;;;8.20;;
830;SDS011;397;50.564;7.272;2023-06-14T04:46:04;9.10;;;8.20;;
830;SDS011;397;50.564;7.272;2023-06-14T04:48:34;8.20;;;7.40;;
830;SDS011;397;50.564;7.272;2023-06-14T04:51:01;9.30;;;8.27;;
830;SDS011;397;50.564;7.272;2023-06-14T04:53:29;8.00;;;7.30;;
830;SDS011;397;50.564;7.272;2023-06-14T04:55:57;8.80;;;7.90;;
830;SDS011;397;50.564;7.272;2023-06-14T04:58:29;8.47;;;7.67;;
830;SDS011;397;50.564;7.272;2023-06-14T05:00:57;9.27;;;7.70;;
830;SDS011;397;50.564;7.272;2023-06-14T05:03:25;8.97;;;8.07;;
830;SDS011;397;50.564;7.272;2023-06-14T05:05:53;9.03;;;7.90;;
830;SDS011;397;50.564;7.272;2023-06-14T05:08:21;8.30;;;7.60;;
830;SDS011;397;50.564;7.272;2023-06-14T05:10:51;9.10;;;8.40;;
830;SDS011;397;50.564;7.272;2023-06-14T05:13:19;9.50;;;8.50;;
830;SDS011;397;50.564;7.272;2023-06-14T05:15:48;9.37;;;8.47;;
830;SDS011;397;50.564;7.272;2023-06-14T05:18:16;9.27;;;8.30;;
830;SDS011;397;50.564;7.272;2023-06-14T05:20:43;9.50;;;8.70;;
830;SDS011;397;50.564;7.272;2023-06-14T05:23:11;9.60;;;8.13;;
830;SDS011;397;50.564;7.272;2023-06-14T05:25:43;9.70;;;8.70;;
830;SDS011;397;50.564;7.272;2023-06-14T05:28:11;9.60;;;8.67;;
830;SDS011;397;50.564;7.272;2023-06-14T05:30:38;10.03;;;9.10;;
830;SDS011;397;50.564;7.272;2023-06-14T05:33:06;9.23;;;7.77;;
830;SDS011;397;50.564;7.272;2023-06-14T05:35:33;9.10;;;8.40;;
830;SDS011;397;50.564;7.272;2023-06-14T05:38:01;8.73;;;7.83;;
830;SDS011;397;50.564;7.272;2023-06-14T05:40:29;8.37;;;7.67;;
830;SDS011;397;50.564;7.272;2023-06-14T05:42:56;8.20;;;7.40;;
830;SDS011;397;50.564;7.272;2023-06-14T05:45:24;7.80;;;7.10;;
830;SDS011;397;50.564;7.272;2023-06-14T05:47:52;8.93;;;8.07;;
830;SDS011;397;50.564;7.272;2023-06-14T05:50:21;9.30;;;8.20;;
830;SDS011;397;50.564;7.272;2023-06-14T05:52:48;9.13;;;8.20;;
830;SDS011;397;50.564;7.272;2023-06-14T05:55:16;10.97;;;7.90;;
830;SDS011;397;50.564;7.272;2023-06-14T05:57:44;9.57;;;8.63;;
830;SDS011;397;50.564;7.272;2023-06-14T06:00:11;10.70;;;7.80;;
830;SDS011;397;50.564;7.272;2023-06-14T06:02:41;8.50;;;7.70;;
830;SDS011;397;50.564;7.272;2023-06-14T06:05:11;9.17;;;8.13;;
830;SDS011;397;50.564;7.272;2023-06-14T06:07:38;8.50;;;7.70;;
830;SDS011;397;50.564;7.272;2023-06-14T06:10:06;11.53;;;8.40;;
830;SDS011;397;50.564;7.272;2023-06-14T06:12:34;10.73;;;7.77;;
830;SDS011;397;50.564;7.272;2023-06-14T06:15:01;7.63;;;6.93;;
830;SDS011;397;50.564;7.272;2023-06-14T06:17:29;7.80;;;7.20;;
830;SDS011;397;50.564;7.272;2023-06-14T06:19:56;11.67;;;8.70;;
830;SDS011;397;50.564;7.272;2023-06-14T06:22:24;8.87;;;8.07;;
830;SDS011;397;50.564;7.272;2023-06-14T06:24:51;8.07;;;7.37;;
830;SDS011;397;50.564;7.272;2023-06-14T06:27:19;8.90;;;8.10;;
830;SDS011;397;50.564;7.272;2023-06-14T06:29:46;9.63;;;8.33;;
830;SDS011;397;50.564;7.272;2023-06-14T06:32:14;8.90;;;8.10;;
830;SDS011;397;50.564;7.272;2023-06-14T06:34:42;9.13;;;7.80;;
830;SDS011;397;50.564;7.272;2023-06-14T06:37:10;10.23;;;8.60;;
830;SDS011;397;50.564;7.272;2023-06-14T06:39:37;9.10;;;8.20;;
830;SDS011;397;50.564;7.272;2023-06-14T06:42:05;9.50;;;7.50;;
830;SDS011;397;50.564;7.272;2023-06-14T06:44:32;8.83;;;8.03;;
830;SDS011;397;50.564;7.272;2023-06-14T06:47:00;8.90;;;8.00;;
830;SDS011;397;50.564;7.272;2023-06-14T06:49:28;8.90;;;7.67;;
830;SDS011;397;50.564;7.272;2023-06-14T06:51:59;9.93;;;7.40;;
830;SDS011;397;50.564;7.272;2023-06-14T06:54:27;7.83;;;7.23;;
830;SDS011;397;50.564;7.272;2023-06-14T06:56:55;7.50;;;6.80;;
830;SDS011;397;50.564;7.272;2023-06-14T06:59:23;9.17;;;7.50;;
830;SDS011;397;50.564;7.272;2023-06-14T07:01:50;9.60;;;6.57;;
830;SDS011;397;50.564;7.272;2023-06-14T07:04:18;16.00;;;6.30;;
830;SDS011;397;50.564;7.272;2023-06-14T07:06:46;6.43;;;5.87;;
830;SDS011;397;50.564;7.272;2023-06-14T07:09:14;5.90;;;5.30;;
830;SDS011;397;50.564;7.272;2023-06-14T07:11:42;6.53;;;5.53;;
830;SDS011;397;50.564;7.272;2023-06-14T07:14:11;7.17;;;5.33;;
830;SDS011;397;50.564;7.272;2023-06-14T07:16:38;11.33;;;6.63;;
830;SDS011;397;50.564;7.272;2023-06-14T07:19:06;6.60;;;6.00;;
830;SDS011;397;50.564;7.272;2023-06-14T07:21:34;8.03;;;5.70;;
830;SDS011;397;50.564;7.272;2023-06-14T07:24:05;9.40;;;5.60;;
830;SDS011;397;50.564;7.272;2023-06-14T07:26:33;6.37;;;5.77;;
830;SDS011;397;50.564;7.272;2023-06-14T07:29:01;6.70;;;6.03;;
830;SDS011;397;50.564;7.272;2023-06-14T07:31:29;6.40;;;5.20;;
830;SDS011;397;50.564;7.272;2023-06-14T07:33:56;6.77;;;5.17;;
830;SDS011;397;50.564;7.272;2023-06-14T07:36:24;7.23;;;4.87;;
830;SDS011;397;50.564;7.272;2023-06-14T07:38:51;6.17;;;5.57;;
830;SDS011;397;50.564;7.272;2023-06-14T07:41:19;5.73;;;4.67;;
830;SDS011;397;50.564;7.272;2023-06-14T07:43:47;9.13;;;5.13;;
830;SDS011;397;50.564;7.272;2023-06-14T07:46:15;5.93;;;5.00;;
830;SDS011;397;50.564;7.272;2023-06-14T07:48:43;5.00;;;4.50;;
830;SDS011;397;50.564;7.272;2023-06-14T07:51:10;7.37;;;5.10;;
830;SDS011;397;50.564;7.272;2023-06-14T07:53:38;6.07;;;5.13;;
830;SDS011;397;50.564;7.272;2023-06-14T07:56:06;6.03;;;4.40;;
830;SDS011;397;50.564;7.272;2023-06-14T07:58:35;7.07;;;5.10;;
830;SDS011;397;50.564;7.272;2023-06-14T08:01:02;7.73;;;4.67;;
830;SDS011;397;50.564;7.272;2023-06-14T08:03:32;4.77;;;4.23;;
830;SDS011;397;50.564;7.272;2023-06-14T08:06:00;8.10;;;4.20;;
830;SDS011;397;50.564;7.272;2023-06-14T08:08:28;5.53;;;4.10;;
830;SDS011;397;50.564;7.272;2023-06-14T08:10:56;5.93;;;4.43;;
830;SDS011;397;50.564;7.272;2023-06-14T08:13:23;5.80;;;4.67;;
830;SDS011;397;50.564;7.272;2023-06-14T08:15:51;5.10;;;4.63;;
830;SDS011;397;50.564;7.272;2023-06-14T08:18:18;6.03;;;4.07;;
830;SDS011;397;50.564;7.272;2023-06-14T08:20:46;5.80;;;4.10;;
830;SDS011;397;50.564;7.272;2023-06-14T08:23:13;5.67;;;4.33;;
830;SDS011;397;50.564;7.272;2023-06-14T08:25:43;8.23;;;3.80;;
830;SDS011;397;50.564;7.272;2023-06-14T08:28:10;5.70;;;4.17;;
830;SDS011;397;50.564;7.272;2023-06-14T08:30:38;5.23;;;3.90;;
830;SDS011;397;50.564;7.272;2023-06-14T08:33:05;5.93;;;4.03;;
830;SDS011;397;50.564;7.272;2023-06-14T08:35:33;5.50;;;4.30;;
830;SDS011;397;50.564;7.272;2023-06-14T08:38:02;5.03;;;3.10;;
830;SDS011;397;50.564;7.272;2023-06-14T08:40:30;5.50;;;2.30;;
830;SDS011;397;50.564;7.272;2023-06-14T08:42:57;3.40;;;2.20;;
830;SDS011;397;50.564;7.272;2023-06-14T08:45:25;4.20;;;3.10;;
830;SDS011;397;50.564;7.272;2023-06-14T08:47:53;6.60;;;2.33;;
830;SDS011;397;50.564;7.272;2023-06-14T08:50:22;5.43;;;3.13;;
830;SDS011;397;50.564;7.272;2023-06-14T08:52:53;3.50;;;2.50;;
830;SDS011;397;50.564;7.272;2023-06-14T08:55:23;4.90;;;2.90;;
830;SDS011;397;50.564;7.272;2023-06-14T08:57:55;5.17;;;2.57;;
830;SDS011;397;50.564;7.272;2023-06-14T09:00:26;4.17;;;2.63;;
830;SDS011;397;50.564;7.272;2023-06-14T09:02:54;3.87;;;2.87;;
830;SDS011;397;50.564;7.272;2023-06-14T09:05:24;4.37;;;2.30;;
830;SDS011;397;50.564;7.272;2023-06-14T09:07:52;4.73;;;2.60;;
830;SDS011;397;50.564;7.272;2023-06-14T09:10:22;4.43;;;2.50;;
830;SDS011;397;50.564;7.272;2023-06-14T09:12:51;5.80;;;2.67;;
830;SDS011;397;50.564;7.272;2023-06-14T09:15:19;6.43;;;2.30;;
830;SDS011;397;50.564;7.272;2023-06-14T09:17:46;5.07;;;2.80;;
830;SDS011;397;50.564;7.272;2023-06-14T09:20:14;4.47;;;3.23;;
830;SDS011;397;50.564;7.272;2023-06-14T09:22:45;3.63;;;2.87;;
830;SDS011;397;50.564;7.272;2023-06-14T09:25:13;5.10;;;3.07;;
830;SDS011;397;50.564;7.272;2023-06-14T09:27:43;4.13;;;2.67;;
830;SDS011;397;50.564;7.272;2023-06-14T09:30:14;4.83;;;2.73;;
830;SDS011;397;50.564;7.272;2023-06-14T09:32:41;5.37;;;2.93;;
830;SDS011;397;50.564;7.272;2023-06-14T09:35:09;6.70;;;3.90;;
830;SDS011;397;50.564;7.272;2023-06-14T09:37:36;6.40;;;3.13;;
830;SDS011;397;50.564;7.272;2023-06-14T09:40:05;4.80;;;2.97;;
830;SDS011;397;50.564;7.272;2023-06-14T09:42:33;5.67;;;3.00;;
830;SDS011;397;50.564;7.272;2023-06-14T09:45:01;5.37;;;3.17;;
830;SDS011;397;50.564;7.272;2023-06-14T09:47:30;4.37;;;3.13;;
830;SDS011;397;50.564;7.272;2023-06-14T09:49:58;5.00;;;2.63;;
830;SDS011;397;50.564;7.272;2023-06-14T09:52:26;4.50;;;2.90;;
830;SDS011;397;50.564;7.272;2023-06-14T09:54:55;3.90;;;2.70;;
830;SDS011;397;50.564;7.272;2023-06-14T09:57:23;5.87;;;3.20;;
830;SDS011;397;50.564;7.272;2023-06-14T09:59:56;4.53;;;2.60;;
830;SDS011;397;50.564;7.272;2023-06-14T10:02:29;3.80;;;2.67;;
830;SDS011;397;50.564;7.272;2023-06-14T10:05:08;4.30;;;3.17;;
830;SDS011;397;50.564;7.272;2023-06-14T10:07:53;5.27;;;3.50;;
830;SDS011;397;50.564;7.272;2023-06-14T10:10:29;6.70;;;2.80;;
830;SDS011;397;50.564;7.272;2023-06-14T10:12:57;4.10;;;2.87;;
830;SDS011;397;50.564;7.272;2023-06-14T10:15:29;5.70;;;2.80;;
830;SDS011;397;50.564;7.272;2023-06-14T10:18:11;4.70;;;2.90;;
830;SDS011;397;50.564;7.272;2023-06-14T10:21:04;4.93;;;3.20;;
830;SDS011;397;50.564;7.272;2023-06-14T10:23:36;4.77;;;2.97;;
830;SDS011;397;50.564;7.272;2023-06-14T10:26:04;5.53;;;2.73;;
830;SDS011;397;50.564;7.272;2023-06-14T10:28:32;5.33;;;2.93;;
830;SDS011;397;50.564;7.272;2023-06-14T10:31:02;5.20;;;3.17;;
830;SDS011;397;50.564;7.272;2023-06-14T10:33:41;3.97;;;2.90;;
830;SDS011;397;50.564;7.272;2023-06-14T10:39:04;3.73;;;3.00;;
830;SDS011;397;50.564;7.272;2023-06-14T10:41:41;5.17;;;3.33;;
830;SDS011;397;50.564;7.272;2023-06-14T10:46:54;4.20;;;2.47;;
830;SDS011;397;50.564;7.272;2023-06-14T10:49:39;3.97;;;2.53;;
830;SDS011;397;50.564;7.272;2023-06-14T10:52:12;3.80;;;2.97;;
830;SDS011;397;50.564;7.272;2023-06-14T10:57:27;5.77;;;2.60;;
830;SDS011;397;50.564;7.272;2023-06-14T10:59:54;3.10;;;2.33;;
830;SDS011;397;50.564;7.272;2023-06-14T11:04:55;3.40;;;2.47;;
830;SDS011;397;50.564;7.272;2023-06-14T11:12:45;3.90;;;2.30;;
830;SDS011;397;50.564;7.272;2023-06-14T11:15:14;4.20;;;2.27;;
830;SDS011;397;50.564;7.272;2023-06-14T11:17:50;4.17;;;3.00;;
830;SDS011;397;50.564;7.272;2023-06-14T11:20:20;3.70;;;1.97;;
830;SDS011;397;50.564;7.272;2023-06-14T11:22:49;5.90;;;2.60;;
830;SDS011;397;50.564;7.272;2023-06-14T11:25:16;3.27;;;2.27;;
830;SDS011;397;50.564;7.272;2023-06-14T11:27:44;3.67;;;2.00;;
830;SDS011;397;50.564;7.272;2023-06-14T11:30:12;3.63;;;2.20;;
830;SDS011;397;50.564;7.272;2023-06-14T11:32:40;2.90;;;2.10;;
830;SDS011;397;50.564;7.272;2023-06-14T11:35:08;5.80;;;2.50;;
830;SDS011;397;50.564;7.272;2023-06-14T11:37:36;3.43;;;2.33;;
830;SDS011;397;50.564;7.272;2023-06-14T11:40:04;4.73;;;2.00;;
830;SDS011;397;50.564;7.272;2023-06-14T11:42:35;6.10;;;2.67;;
830;SDS011;397;50.564;7.272;2023-06-14T11:45:03;5.53;;;1.90;;
830;SDS011;397;50.564;7.272;2023-06-14T11:47:33;2.87;;;2.17;;
830;SDS011;397;50.564;7.272;2023-06-14T11:50:08;3.37;;;2.20;;
830;SDS011;397;50.564;7.272;2023-06-14T11:52:36;3.20;;;2.00;;
830;SDS011;397;50.564;7.272;2023-06-14T11:55:04;3.67;;;2.50;;
830;SDS011;397;50.564;7.272;2023-06-14T11:57:36;3.10;;;2.10;;
830;SDS011;397;50.564;7.272;2023-06-14T12:00:04;3.50;;;2.03;;
830;SDS011;397;50.564;7.272;2023-06-14T12:02:35;4.70;;;2.50;;
830;SDS011;397;50.564;7.272;2023-06-14T12:05:06;4.83;;;2.50;;
830;SDS011;397;50.564;7.272;2023-06-14T12:07:36;3.20;;;2.07;;
830;SDS011;397;50.564;7.272;2023-06-14T12:10:06;3.40;;;2.30;;
830;SDS011;397;50.564;7.272;2023-06-14T12:12:37;4.00;;;2.47;;
830;SDS011;397;50.564;7.272;2023-06-14T12:15:06;4.33;;;2.50;;
830;SDS011;397;50.564;7.272;2023-06-14T12:17:35;3.93;;;2.43;;
830;SDS011;397;50.564;7.272;2023-06-14T12:20:06;6.33;;;2.37;;
830;SDS011;397;50.564;7.272;2023-06-14T12:22:51;2.80;;;1.80;;
830;SDS011;397;50.564;7.272;2023-06-14T12:25:29;4.13;;;1.63;;
830;SDS011;397;50.564;7.272;2023-06-14T12:28:08;5.13;;;2.33;;
830;SDS011;397;50.564;7.272;2023-06-14T12:30:33;5.67;;;2.20;;
830;SDS011;397;50.564;7.272;2023-06-14T12:33:02;4.13;;;1.90;;
830;SDS011;397;50.564;7.272;2023-06-14T12:35:31;3.90;;;2.20;;
830;SDS011;397;50.564;7.272;2023-06-14T12:37:58;3.23;;;2.33;;
830;SDS011;397;50.564;7.272;2023-06-14T12:40:26;5.20;;;2.27;;
830;SDS011;397;50.564;7.272;2023-06-14T12:42:54;4.17;;;2.67;;
830;SDS011;397;50.564;7.272;2023-06-14T12:45:21;3.57;;;2.20;;
830;SDS011;397;50.564;7.272;2023-06-14T12:47:49;3.63;;;2.37;;
830;SDS011;397;50.564;7.272;2023-06-14T12:50:17;5.00;;;3.10;;
830;SDS011;397;50.564;7.272;2023-06-14T12:52:45;7.10;;;2.83;;
830;SDS011;397;50.564;7.272;2023-06-14T12:55:12;3.50;;;2.70;;
830;SDS011;397;50.564;7.272;2023-06-14T12:57:40;3.40;;;2.40;;
830;SDS011;397;50.564;7.272;2023-06-14T13:00:07;4.50;;;3.00;;
830;SDS011;397;50.564;7.272;2023-06-14T13:02:36;3.43;;;2.30;;
830;SDS011;397;50.564;7.272;2023-06-14T13:05:04;3.33;;;2.87;;
830;SDS011;397;50.564;7.272;2023-06-14T13:07:32;4.37;;;3.40;;
830;SDS011;397;50.564;7.272;2023-06-14T13:09:59;3.73;;;2.93;;
830;SDS011;397;50.564;7.272;2023-06-14T13:12:27;4.57;;;2.60;;
830;SDS011;397;50.564;7.272;2023-06-14T13:14:54;4.17;;;2.73;;
830;SDS011;397;50.564;7.272;2023-06-14T13:17:22;5.70;;;3.23;;
830;SDS011;397;50.564;7.272;2023-06-14T13:19:49;4.50;;;3.30;;
830;SDS011;397;50.564;7.272;2023-06-14T13:22:17;4.37;;;3.47;;
830;SDS011;397;50.564;7.272;2023-06-14T13:24:44;7.40;;;3.50;;
830;SDS011;397;50.564;7.272;2023-06-14T13:27:12;4.10;;;3.70;;
830;SDS011;397;50.564;7.272;2023-06-14T13:29:40;7.03;;;3.40;;
830;SDS011;397;50.564;7.272;2023-06-14T13:32:07;3.40;;;2.70;;
830;SDS011;397;50.564;7.272;2023-06-14T13:34:35;5.20;;;3.30;;
830;SDS011;397;50.564;7.272;2023-06-14T13:37:02;5.73;;;4.03;;
830;SDS011;397;50.564;7.272;2023-06-14T13:39:30;5.03;;;4.30;;
830;SDS011;397;50.564;7.272;2023-06-14T13:41:57;4.80;;;3.17;;
830;SDS011;397;50.564;7.272;2023-06-14T13:44:25;9.30;;;3.80;;
830;SDS011;397;50.564;7.272;2023-06-14T13:46:52;6.30;;;3.60;;
830;SDS011;397;50.564;7.272;2023-06-14T13:49:20;3.77;;;3.37;;
830;SDS011;397;50.564;7.272;2023-06-14T13:51:47;4.90;;;3.23;;
830;SDS011;397;50.564;7.272;2023-06-14T13:54:17;4.00;;;2.87;;
830;SDS011;397;50.564;7.272;2023-06-14T13:56:46;4.23;;;3.07;;
830;SDS011;397;50.564;7.272;2023-06-14T13:59:14;3.77;;;2.90;;
830;SDS011;397;50.564;7.272;2023-06-14T14:01:42;3.47;;;2.40;;
830;SDS011;397;50.564;7.272;2023-06-14T14:04:09;3.40;;;2.77;;
830;SDS011;397;50.564;7.272;2023-06-14T14:06:37;3.40;;;2.70;;
830;SDS011;397;50.564;7.272;2023-06-14T14:09:04;5.43;;;2.53;;
830;SDS011;397;50.564;7.272;2023-06-14T14:11:32;3.13;;;2.80;;
830;SDS011;397;50.564;7.272;2023-06-14T14:14:00;3.80;;;2.67;;
830;SDS011;397;50.564;7.272;2023-06-14T14:16:27;4.90;;;3.70;;
830;SDS011;397;50.564;7.272;2023-06-14T14:18:56;5.37;;;3.20;;
830;SDS011;397;50.564;7.272;2023-06-14T14:21:23;6.83;;;3.23;;
830;SDS011;397;50.564;7.272;2023-06-14T14:23:51;4.00;;;3.00;;
830;SDS011;397;50.564;7.272;2023-06-14T14:26:19;4.93;;;4.30;;
830;SDS011;397;50.564;7.272;2023-06-14T14:28:46;4.00;;;3.30;;
830;SDS011;397;50.564;7.272;2023-06-14T14:31:13;5.60;;;3.60;;
830;SDS011;397;50.564;7.272;2023-06-14T14:33:41;4.77;;;3.00;;
830;SDS011;397;50.564;7.272;2023-06-14T14:36:09;5.80;;;3.57;;
830;SDS011;397;50.564;7.272;2023-06-14T14:38:36;4.33;;;3.33;;
830;SDS011;397;50.564;7.272;2023-06-14T14:41:04;4.50;;;3.20;;
830;SDS011;397;50.564;7.272;2023-06-14T14:43:31;4.47;;;3.33;;
830;SDS011;397;50.564;7.272;2023-06-14T14:45:59;3.57;;;2.80;;
830;SDS011;397;50.564;7.272;2023-06-14T14:48:26;4.77;;;2.90;;
830;SDS011;397;50.564;7.272;2023-06-14T14:50:54;5.90;;;4.47;;
830;SDS011;397;50.564;7.272;2023-06-14T14:53:21;3.97;;;3.10;;
830;SDS011;397;50.564;7.272;2023-06-14T14:55:49;4.80;;;2.90;;
830;SDS011;397;50.564;7.272;2023-06-14T14:58:16;4.10;;;3.50;;
830;SDS011;397;50.564;7.272;2023-06-14T15:00:45;4.13;;;3.00;;
830;SDS011;397;50.564;7.272;2023-06-14T15:03:13;3.30;;;2.70;;
830;SDS011;397;50.564;7.272;2023-06-14T15:05:41;4.03;;;3.17;;
830;SDS011;397;50.564;7.272;2023-06-14T15:08:08;8.50;;;3.10;;
830;SDS011;397;50.564;7.272;2023-06-14T15:10:39;5.80;;;3.17;;
830;SDS011;397;50.564;7.272;2023-06-14T15:13:07;7.87;;;3.50;;
830;SDS011;397;50.564;7.272;2023-06-14T15:15:35;4.83;;;2.83;;
830;SDS011;397;50.564;7.272;2023-06-14T15:18:03;4.70;;;3.47;;
830;SDS011;397;50.564;7.272;2023-06-14T15:20:30;4.00;;;3.17;;
830;SDS011;397;50.564;7.272;2023-06-14T15:22:58;5.00;;;3.30;;
830;SDS011;397;50.564;7.272;2023-06-14T15:25:26;3.70;;;3.20;;
830;SDS011;397;50.564;7.272;2023-06-14T15:27:54;5.33;;;3.70;;
830;SDS011;397;50.564;7.272;2023-06-14T15:30:22;5.67;;;4.07;;
830;SDS011;397;50.564;7.272;2023-06-14T15:32:49;3.87;;;2.93;;
830;SDS011;397;50.564;7.272;2023-06-14T15:35:17;4.13;;;3.20;;
830;SDS011;397;50.564;7.272;2023-06-14T15:37:47;7.37;;;3.47;;
830;SDS011;397;50.564;7.272;2023-06-14T15:40:15;4.03;;;3.27;;
830;SDS011;397;50.564;7.272;2023-06-14T15:42:42;3.50;;;2.83;;
830;SDS011;397;50.564;7.272;2023-06-14T15:45:10;5.20;;;3.70;;
830;SDS011;397;50.564;7.272;2023-06-14T15:47:37;3.50;;;2.80;;
830;SDS011;397;50.564;7.272;2023-06-14T15:50:05;4.47;;;3.27;;
830;SDS011;397;50.564;7.272;2023-06-14T15:52:37;6.13;;;2.80;;
830;SDS011;397;50.564;7.272;2023-06-14T15:55:05;4.53;;;4.03;;
830;SDS011;397;50.564;7.272;2023-06-14T15:57:32;3.40;;;2.77;;
830;SDS011;397;50.564;7.272;2023-06-14T16:00:00;4.33;;;3.93;;
830;SDS011;397;50.564;7.272;2023-06-14T16:02:28;4.50;;;3.30;;
830;SDS011;397;50.564;7.272;2023-06-14T16:04:56;4.90;;;3.50;;
830;SDS011;397;50.564;7.272;2023-06-14T16:07:23;3.40;;;2.77;;
830;SDS011;397;50.564;7.272;2023-06-14T16:09:51;7.77;;;3.90;;
830;SDS011;397;50.564;7.272;2023-06-14T16:12:18;5.60;;;3.17;;